createdAt,value
2022-11-12T00:00:52.203Z,6.76
2022-11-12T00:03:18.674Z,6.67
2022-11-12T00:05:45.484Z,6.67
2022-11-12T00:08:13.946Z,6.53
2022-11-12T00:10:40.287Z,6.57
2022-11-12T00:13:06.821Z,6.72
2022-11-12T00:15:34.309Z,6.74
2022-11-12T00:18:00.652Z,6.67
2022-11-12T00:20:28.092Z,6.68
2022-11-12T00:22:54.426Z,6.70
2022-11-12T00:25:20.949Z,6.64
2022-11-12T00:27:49.296Z,6.64
2022-11-12T00:30:15.839Z,6.60
2022-11-12T00:32:42.293Z,6.61
2022-11-12T00:35:12.647Z,6.60
2022-11-12T00:37:46.105Z,6.60
2022-11-12T00:40:12.540Z,6.67
2022-11-12T00:42:38.909Z,6.82
2022-11-12T00:45:05.522Z,6.68
2022-11-12T00:47:31.839Z,6.72
2022-11-12T00:49:58.288Z,6.67
2022-11-12T00:52:27.814Z,6.66
2022-11-12T00:54:54.135Z,6.72
2022-11-12T00:57:20.462Z,6.76
2022-11-12T00:59:56.962Z,6.74
2022-11-12T01:02:23.257Z,6.65
2022-11-12T01:04:54.296Z,6.64
2022-11-12T01:07:20.646Z,6.60
2022-11-12T01:09:48.221Z,6.54
2022-11-12T01:12:14.525Z,6.59
2022-11-12T01:14:40.950Z,6.51
2022-11-12T01:17:07.345Z,6.47
2022-11-12T01:19:33.674Z,6.27
2022-11-12T01:22:07.921Z,6.28
2022-11-12T01:24:34.326Z,6.29
2022-11-12T01:27:00.726Z,6.25
2022-11-12T01:29:27.025Z,6.26
2022-11-12T01:31:53.336Z,6.35
2022-11-12T01:34:19.669Z,6.40
2022-11-12T01:36:46.038Z,6.51
2022-11-12T01:39:12.423Z,6.55
2022-11-12T01:41:39.360Z,6.26
2022-11-12T01:44:13.551Z,6.30
2022-11-12T01:46:48.214Z,6.34
2022-11-12T01:49:19.113Z,6.11
2022-11-12T01:51:48.151Z,6.12
2022-11-12T01:54:17.093Z,6.24
2022-11-12T01:56:43.688Z,5.99
2022-11-12T01:59:20.168Z,6.15
2022-11-12T02:01:46.481Z,6.29
2022-11-12T02:04:13.099Z,6.17
2022-11-12T02:06:39.908Z,6.29
2022-11-12T02:09:17.376Z,6.27
2022-11-12T02:11:44.112Z,6.32
2022-11-12T02:14:10.729Z,6.36
2022-11-12T02:16:38.808Z,6.30
2022-11-12T02:19:06.831Z,6.20
2022-11-12T02:21:33.484Z,6.20
2022-11-12T02:24:26.054Z,6.35
2022-11-12T02:26:54.292Z,6.34
2022-11-12T02:29:21.285Z,6.45
2022-11-12T02:31:47.740Z,6.38
2022-11-12T02:34:14.225Z,6.42
2022-11-12T02:36:49.508Z,6.44
2022-11-12T02:39:15.847Z,6.27
2022-11-12T02:41:42.154Z,6.30
2022-11-12T02:44:08.509Z,6.17
2022-11-12T02:46:36.940Z,6.24
2022-11-12T02:49:03.260Z,6.09
2022-11-12T02:51:29.568Z,6.28
2022-11-12T02:53:56.993Z,6.29
2022-11-12T02:56:23.329Z,6.18
2022-11-12T02:58:51.511Z,6.26
2022-11-12T03:01:17.855Z,6.13
2022-11-12T03:03:46.339Z,6.16
2022-11-12T03:06:12.667Z,6.02
2022-11-12T03:08:41.021Z,6.13
2022-11-12T03:11:11.441Z,6.10
2022-11-12T03:13:39.342Z,6.11
2022-11-12T03:16:05.843Z,5.90
2022-11-12T03:18:32.403Z,6.02
2022-11-12T03:20:58.772Z,6.00
2022-11-12T03:23:26.391Z,5.94
2022-11-12T03:25:55.331Z,5.89
2022-11-12T03:28:22.145Z,6.01
2022-11-12T03:30:48.462Z,6.11
2022-11-12T03:33:15.474Z,6.04
2022-11-12T03:35:42.030Z,5.99
2022-11-12T03:38:08.547Z,5.97
2022-11-12T03:40:36.988Z,5.99
2022-11-12T03:43:03.406Z,5.98
2022-11-12T03:45:29.809Z,5.98
2022-11-12T03:48:02.964Z,5.92
2022-11-12T03:50:29.813Z,5.88
2022-11-12T03:52:57.352Z,5.78
2022-11-12T03:55:29.448Z,5.77
2022-11-12T03:58:03.673Z,5.81
2022-11-12T04:00:30.197Z,5.65
2022-11-12T04:02:56.997Z,5.71
2022-11-12T04:05:42.123Z,5.81
2022-11-12T04:08:34.466Z,5.84
2022-11-12T04:11:02.718Z,5.88
2022-11-12T04:13:30.237Z,5.73
2022-11-12T04:16:16.642Z,5.76
2022-11-12T04:19:04.772Z,5.84
2022-11-12T04:21:50.904Z,5.77
2022-11-12T04:24:43.291Z,5.71
2022-11-12T04:27:15.664Z,5.59
2022-11-12T04:30:01.363Z,5.61
2022-11-12T04:32:28.193Z,5.57
2022-11-12T04:34:54.872Z,5.47
2022-11-12T04:37:23.669Z,5.52
2022-11-12T04:39:53.178Z,5.60
2022-11-12T04:42:44.131Z,5.54
2022-11-12T04:45:10.872Z,5.41
2022-11-12T04:47:38.500Z,5.43
2022-11-12T04:50:06.955Z,5.33
2022-11-12T04:52:33.374Z,5.29
2022-11-12T04:55:01.783Z,5.36
2022-11-12T04:57:28.232Z,5.41
2022-11-12T04:59:54.776Z,5.38
2022-11-12T05:02:21.405Z,5.39
2022-11-12T05:04:50.847Z,5.33
2022-11-12T05:07:17.668Z,5.33
2022-11-12T05:09:46.154Z,5.39
2022-11-12T05:12:12.502Z,5.50
2022-11-12T05:14:41.999Z,5.42
2022-11-12T05:17:08.332Z,5.35
2022-11-12T05:19:35.241Z,5.33
2022-11-12T05:22:17.524Z,5.17
2022-11-12T05:24:48.531Z,5.21
2022-11-12T05:27:21.770Z,5.23
2022-11-12T05:29:48.131Z,5.18
2022-11-12T05:32:15.407Z,5.16
2022-11-12T05:34:42.244Z,5.02
2022-11-12T05:37:09.744Z,5.34
2022-11-12T05:39:40.075Z,5.21
2022-11-12T05:42:13.098Z,5.01
2022-11-12T05:44:47.383Z,5.12
2022-11-12T05:47:13.842Z,5.13
2022-11-12T05:49:40.151Z,5.20
2022-11-12T05:52:06.544Z,5.11
2022-11-12T05:54:32.847Z,5.07
2022-11-12T05:57:05.301Z,5.05
2022-11-12T05:59:31.622Z,4.98
2022-11-12T06:01:59.118Z,4.77
2022-11-12T06:04:26.259Z,4.98
2022-11-12T06:06:52.656Z,4.96
2022-11-12T06:09:19.127Z,4.99
2022-11-12T06:11:45.468Z,4.90
2022-11-12T06:14:11.886Z,4.95
2022-11-12T06:16:38.231Z,4.92
2022-11-12T06:19:05.170Z,4.85
2022-11-12T06:21:33.528Z,4.91
2022-11-12T06:24:00.698Z,4.82
2022-11-12T06:26:29.640Z,4.73
2022-11-12T06:28:56.286Z,4.75
2022-11-12T06:31:22.887Z,4.77
2022-11-12T06:33:49.678Z,4.76
2022-11-12T06:36:17.626Z,4.72
2022-11-12T06:38:45.816Z,4.88
2022-11-12T06:41:14.149Z,5.02
2022-11-12T06:43:40.991Z,4.87
2022-11-12T06:46:17.488Z,4.88
2022-11-12T06:48:43.840Z,4.78
2022-11-12T06:51:12.489Z,4.83
2022-11-12T06:53:39.288Z,4.80
2022-11-12T06:56:06.633Z,4.71
2022-11-12T06:58:33.644Z,4.59
2022-11-12T07:01:20.265Z,4.72
2022-11-12T07:03:56.553Z,4.73
2022-11-12T07:06:23.073Z,4.91
2022-11-12T07:08:50.363Z,5.15
2022-11-12T07:11:17.902Z,5.14
2022-11-12T07:13:46.059Z,5.23
2022-11-12T07:16:13.828Z,5.28
2022-11-12T07:18:40.231Z,5.04
2022-11-12T07:21:07.311Z,4.92
2022-11-12T07:23:34.843Z,4.93
2022-11-12T07:26:04.381Z,5.08
2022-11-12T07:28:37.798Z,5.13
2022-11-12T07:31:05.853Z,5.22
2022-11-12T07:33:33.084Z,5.16
2022-11-12T07:36:06.928Z,5.46
2022-11-12T07:38:37.448Z,5.29
2022-11-12T07:41:22.004Z,5.29
2022-11-12T07:43:49.116Z,5.19
2022-11-12T07:46:25.842Z,5.45
2022-11-12T07:48:52.340Z,5.44
2022-11-12T07:51:20.162Z,5.48
2022-11-12T07:53:47.312Z,5.49
2022-11-12T07:56:16.370Z,5.52
2022-11-12T07:58:44.819Z,5.38
2022-11-12T08:01:23.476Z,5.38
2022-11-12T08:03:52.939Z,5.31
2022-11-12T08:06:21.608Z,5.36
2022-11-12T08:08:48.210Z,5.32
2022-11-12T08:11:27.776Z,5.31
2022-11-12T08:13:54.415Z,5.37
2022-11-12T08:16:20.783Z,5.36
2022-11-12T08:18:47.268Z,5.55
2022-11-12T08:21:15.306Z,5.60
2022-11-12T08:23:42.015Z,5.70
2022-11-12T08:26:11.051Z,5.88
2022-11-12T08:28:40.607Z,5.87
2022-11-12T08:31:10.142Z,5.87
2022-11-12T08:33:37.536Z,6.04
2022-11-12T08:36:04.995Z,6.29
2022-11-12T08:38:31.396Z,6.48
2022-11-12T08:41:17.611Z,6.59
2022-11-12T08:43:44.088Z,6.64
2022-11-12T08:46:19.616Z,6.67
2022-11-12T08:48:46.036Z,6.55
2022-11-12T08:51:21.533Z,6.69
2022-11-12T08:53:47.854Z,7.08
2022-11-12T08:56:14.201Z,6.98
2022-11-12T08:58:40.556Z,7.25
2022-11-12T09:01:08.408Z,7.83
2022-11-12T09:03:34.796Z,7.56
2022-11-12T09:06:05.203Z,6.75
2022-11-12T09:08:36.907Z,6.93
2022-11-12T09:11:11.615Z,7.07
2022-11-12T09:13:38.018Z,7.37
2022-11-12T09:16:06.383Z,7.54
2022-11-12T09:18:33.507Z,7.65
2022-11-12T09:21:00.826Z,7.62
2022-11-12T09:23:27.258Z,7.53
2022-11-12T09:25:54.987Z,7.65
2022-11-12T09:28:21.323Z,7.80
2022-11-12T09:30:49.687Z,7.54
2022-11-12T09:33:20.551Z,7.69
2022-11-12T09:35:47.555Z,7.93
2022-11-12T09:38:15.550Z,8.09
2022-11-12T09:40:42.101Z,8.30
2022-11-12T09:43:17.070Z,8.65
2022-11-12T09:45:54.960Z,8.55
2022-11-12T09:48:34.796Z,8.63
2022-11-12T09:51:05.864Z,8.63
2022-11-12T09:53:32.155Z,8.47
2022-11-12T09:55:58.692Z,8.40
2022-11-12T09:58:25.850Z,8.34
2022-11-12T10:00:57.381Z,8.22
2022-11-12T10:03:23.680Z,8.12
2022-11-12T10:05:58.418Z,8.08
2022-11-12T10:08:37.603Z,7.96
2022-11-12T10:11:25.328Z,7.95
2022-11-12T10:14:10.509Z,7.91
2022-11-12T10:16:45.882Z,7.91
2022-11-12T10:19:12.167Z,8.05
2022-11-12T10:21:57.352Z,8.07
2022-11-12T10:24:24.684Z,7.84
2022-11-12T10:26:52.210Z,8.10
2022-11-12T10:29:30.842Z,8.44
2022-11-12T10:31:57.222Z,8.63
2022-11-12T10:34:24.279Z,8.65
2022-11-12T10:36:56.650Z,8.67
2022-11-12T10:39:32.445Z,9.03
2022-11-12T10:42:02.698Z,9.48
2022-11-12T10:44:29.027Z,9.47
2022-11-12T10:47:15.303Z,9.95
2022-11-12T10:49:41.666Z,9.56
2022-11-12T10:52:20.593Z,9.94
2022-11-12T10:54:52.373Z,9.81
2022-11-12T10:57:24.152Z,9.46
2022-11-12T11:00:26.208Z,9.70
2022-11-12T11:02:53.387Z,10.18
2022-11-12T11:05:32.966Z,9.64
2022-11-12T11:07:59.449Z,9.79
2022-11-12T11:10:27.245Z,10.13
2022-11-12T11:13:10.208Z,10.29
2022-11-12T11:15:37.827Z,10.52
2022-11-12T11:18:04.228Z,10.91
2022-11-12T11:20:33.620Z,10.83
2022-11-12T11:23:05.468Z,10.62
2022-11-12T11:25:33.784Z,10.89
2022-11-12T11:28:19.170Z,11.12
2022-11-12T11:30:52.001Z,10.90
2022-11-12T11:33:25.355Z,10.65
2022-11-12T11:36:09.813Z,10.68
2022-11-12T11:38:42.261Z,10.62
2022-11-12T11:41:21.532Z,10.82
2022-11-12T11:43:58.883Z,10.76
2022-11-12T11:46:31.322Z,10.65
2022-11-12T11:49:15.170Z,10.73
2022-11-12T11:52:00.044Z,10.72
2022-11-12T11:54:52.492Z,10.77
2022-11-12T11:57:23.380Z,10.92
2022-11-12T11:59:52.506Z,10.93
2022-11-12T12:02:27.995Z,10.77
2022-11-12T12:05:03.660Z,10.79
2022-11-12T12:07:50.463Z,10.83
2022-11-12T12:10:19.545Z,10.88
2022-11-12T12:12:55.701Z,11.05
2022-11-12T12:15:31.888Z,11.08
2022-11-12T12:18:07.802Z,11.06
2022-11-12T12:20:44.448Z,11.05
2022-11-12T12:23:25.384Z,11.03
2022-11-12T12:25:57.506Z,11.20
2022-11-12T12:28:35.727Z,11.10
2022-11-12T12:31:05.687Z,10.94
2022-11-12T12:33:40.004Z,11.01
2022-11-12T12:36:13.959Z,11.15
2022-11-12T12:39:06.306Z,11.24
2022-11-12T12:41:44.276Z,11.26
2022-11-12T12:44:10.997Z,11.36
2022-11-12T12:46:46.774Z,11.39
2022-11-12T12:49:23.684Z,11.40
2022-11-12T12:51:55.486Z,11.34
2022-11-12T12:54:37.270Z,11.40
2022-11-12T12:57:04.184Z,11.44
2022-11-12T12:59:31.616Z,11.37
2022-11-12T13:01:58.039Z,11.63
2022-11-12T13:04:47.507Z,11.54
2022-11-12T13:07:13.932Z,11.59
2022-11-12T13:09:41.340Z,11.59
2022-11-12T13:12:09.321Z,11.64
2022-11-12T13:14:35.773Z,11.59
2022-11-12T13:17:08.400Z,11.66
2022-11-12T13:19:37.513Z,11.65
2022-11-12T13:22:19.321Z,11.61
2022-11-12T13:25:05.588Z,11.62
2022-11-12T13:27:47.079Z,11.57
2022-11-12T13:30:13.389Z,11.56
2022-11-12T13:32:52.064Z,11.53
2022-11-12T13:35:18.645Z,11.53
2022-11-12T13:38:03.396Z,11.53
2022-11-12T13:40:29.782Z,11.60
2022-11-12T13:42:58.961Z,11.66
2022-11-12T13:45:27.109Z,11.59
2022-11-12T13:47:53.602Z,11.44
2022-11-12T13:50:22.182Z,11.43
2022-11-12T13:52:49.782Z,11.39
2022-11-12T13:55:19.998Z,11.33
2022-11-12T13:57:53.678Z,11.37
2022-11-12T14:00:22.080Z,11.39
2022-11-12T14:02:58.497Z,11.27
2022-11-12T14:05:32.196Z,11.29
2022-11-12T14:08:22.685Z,11.38
2022-11-12T14:11:09.198Z,11.42
2022-11-12T14:13:49.910Z,11.40
2022-11-12T14:16:27.933Z,11.40
2022-11-12T14:19:13.223Z,11.33
2022-11-12T14:21:58.707Z,11.24
2022-11-12T14:24:25.191Z,11.26
2022-11-12T14:26:51.633Z,11.22
2022-11-12T14:29:19.366Z,11.16
2022-11-12T14:31:46.322Z,11.13
2022-11-12T14:34:19.157Z,11.06
2022-11-12T14:36:55.869Z,10.95
2022-11-12T14:39:23.344Z,10.83
2022-11-12T14:41:51.013Z,10.67
2022-11-12T14:44:23.342Z,10.44
2022-11-12T14:46:51.299Z,10.38
2022-11-12T14:49:42.439Z,10.33
2022-11-12T14:52:16.984Z,10.41
2022-11-12T14:55:06.884Z,10.43
2022-11-12T14:57:33.240Z,10.40
2022-11-12T14:59:59.690Z,10.19
2022-11-12T15:02:42.348Z,10.21
2022-11-12T15:05:16.569Z,9.98
2022-11-12T15:08:02.500Z,10.07
2022-11-12T15:10:30.952Z,10.06
2022-11-12T15:13:04.396Z,9.77
2022-11-12T15:15:31.047Z,9.50
2022-11-12T15:18:02.570Z,9.66
2022-11-12T15:20:28.956Z,9.36
2022-11-12T15:22:56.329Z,9.38
2022-11-12T15:25:22.835Z,9.39
2022-11-12T15:27:49.802Z,9.44
2022-11-12T15:30:19.038Z,9.38
2022-11-12T15:32:46.674Z,9.26
2022-11-12T15:35:25.426Z,9.18
2022-11-12T15:37:52.147Z,9.01
2022-11-12T15:40:20.038Z,8.88
2022-11-12T15:42:46.975Z,8.93
2022-11-12T15:45:16.065Z,8.87
2022-11-12T15:47:42.406Z,8.74
2022-11-12T15:50:15.309Z,8.77
2022-11-12T15:52:41.831Z,8.23
2022-11-12T15:55:08.922Z,8.41
2022-11-12T15:57:38.904Z,8.51
2022-11-12T16:00:08.683Z,8.46
2022-11-12T16:02:35.327Z,8.50
2022-11-12T16:05:01.953Z,8.36
2022-11-12T16:07:28.402Z,8.28
2022-11-12T16:09:55.791Z,8.07
2022-11-12T16:12:22.369Z,8.06
2022-11-12T16:14:48.762Z,8.16
2022-11-12T16:17:17.930Z,8.18
2022-11-12T16:19:44.466Z,8.14
2022-11-12T16:22:13.663Z,8.24
2022-11-12T16:24:40.503Z,8.18
2022-11-12T16:27:09.782Z,8.00
2022-11-12T16:29:36.243Z,8.05
2022-11-12T16:32:04.491Z,8.31
2022-11-12T16:34:30.891Z,8.17
2022-11-12T16:36:57.848Z,8.26
2022-11-12T16:39:24.411Z,8.02
2022-11-12T16:41:50.969Z,8.00
2022-11-12T16:44:17.310Z,7.79
2022-11-12T16:46:45.860Z,7.76
2022-11-12T16:49:13.256Z,7.57
2022-11-12T16:51:39.582Z,7.85
2022-11-12T16:54:06.200Z,7.84
2022-11-12T16:56:32.809Z,7.93
2022-11-12T16:58:59.332Z,7.73
2022-11-12T17:01:32.400Z,7.85
2022-11-12T17:03:58.923Z,7.74
2022-11-12T17:06:32.921Z,7.84
2022-11-12T17:08:59.229Z,7.81
2022-11-12T17:11:25.680Z,7.77
2022-11-12T17:13:52.000Z,7.86
2022-11-12T17:16:18.410Z,7.68
2022-11-12T17:18:44.770Z,7.80
2022-11-12T17:21:15.750Z,7.89
2022-11-12T17:23:42.323Z,7.78
2022-11-12T17:26:12.950Z,7.87
2022-11-12T17:28:39.337Z,7.92
2022-11-12T17:31:07.365Z,7.77
2022-11-12T17:33:37.513Z,7.89
2022-11-12T17:36:04.583Z,7.91
2022-11-12T17:38:32.950Z,7.90
2022-11-12T17:40:59.331Z,7.86
2022-11-12T17:43:26.949Z,7.70
2022-11-12T17:45:54.234Z,7.55
2022-11-12T17:48:20.809Z,7.61
2022-11-12T17:50:47.805Z,7.71
2022-11-12T17:53:16.176Z,7.40
2022-11-12T17:55:42.543Z,7.58
2022-11-12T17:58:09.666Z,7.68
2022-11-12T18:00:38.043Z,7.64
2022-11-12T18:03:04.416Z,7.47
2022-11-12T18:05:30.745Z,7.43
2022-11-12T18:07:57.060Z,7.51
2022-11-12T18:10:23.391Z,7.57
2022-11-12T18:12:50.983Z,7.48
2022-11-12T18:15:17.416Z,7.49
2022-11-12T18:17:43.825Z,7.55
2022-11-12T18:20:10.295Z,7.46
2022-11-12T18:22:42.143Z,7.41
2022-11-12T18:25:12.738Z,7.44
2022-11-12T18:27:48.038Z,7.35
2022-11-12T18:30:19.143Z,7.28
2022-11-12T18:32:45.875Z,7.25
2022-11-12T18:35:12.209Z,7.08
2022-11-12T18:37:38.521Z,7.17
2022-11-12T18:40:05.010Z,7.02
2022-11-12T18:42:32.830Z,7.07
2022-11-12T18:44:59.306Z,7.08
2022-11-12T18:47:25.606Z,7.07
2022-11-12T18:49:51.946Z,6.98
2022-11-12T18:52:21.527Z,6.93
2022-11-12T18:54:47.924Z,6.82
2022-11-12T18:57:18.388Z,6.83
2022-11-12T18:59:44.814Z,6.87
2022-11-12T19:02:11.700Z,6.85
2022-11-12T19:04:44.000Z,6.83
2022-11-12T19:07:11.650Z,6.78
2022-11-12T19:09:39.302Z,6.68
2022-11-12T19:12:05.815Z,6.58
2022-11-12T19:14:32.302Z,6.48
2022-11-12T19:17:01.919Z,6.33
2022-11-12T19:19:28.239Z,6.37
2022-11-12T19:21:54.677Z,6.47
2022-11-12T19:24:21.015Z,6.27
2022-11-12T19:26:48.938Z,6.37
2022-11-12T19:29:16.352Z,6.30
2022-11-12T19:31:42.735Z,6.29
2022-11-12T19:34:11.106Z,6.32
2022-11-12T19:36:37.418Z,6.37
2022-11-12T19:39:03.986Z,6.13
2022-11-12T19:41:30.331Z,5.94
2022-11-12T19:43:56.659Z,5.82
2022-11-12T19:46:23.053Z,5.58
2022-11-12T19:48:49.402Z,5.71
2022-11-12T19:51:15.767Z,5.69
2022-11-12T19:53:46.047Z,5.68
2022-11-12T19:56:17.221Z,5.77
2022-11-12T19:58:47.174Z,5.67
2022-11-12T20:01:26.916Z,5.57
2022-11-12T20:03:53.313Z,5.48
2022-11-12T20:06:20.683Z,5.42
2022-11-12T20:08:47.350Z,5.35
2022-11-12T20:11:16.087Z,5.59
2022-11-12T20:13:44.720Z,5.52
2022-11-12T20:16:16.764Z,5.47
2022-11-12T20:18:50.843Z,5.42
2022-11-12T20:21:17.927Z,5.30
2022-11-12T20:23:51.210Z,5.48
2022-11-12T20:26:17.652Z,5.55
2022-11-12T20:28:44.013Z,5.30
2022-11-12T20:31:20.575Z,5.34
2022-11-12T20:33:47.599Z,5.29
2022-11-12T20:36:21.168Z,5.16
2022-11-12T20:38:50.331Z,5.16
2022-11-12T20:41:18.102Z,5.16
2022-11-12T20:43:44.534Z,5.07
2022-11-12T20:46:11.289Z,5.05
2022-11-12T20:48:43.074Z,4.77
2022-11-12T20:51:24.578Z,4.70
2022-11-12T20:54:00.673Z,4.98
2022-11-12T20:56:30.458Z,4.89
2022-11-12T20:58:59.468Z,4.95
2022-11-12T21:01:26.701Z,4.96
2022-11-12T21:03:56.058Z,5.05
2022-11-12T21:06:24.553Z,4.76
2022-11-12T21:08:51.026Z,4.89
2022-11-12T21:11:19.765Z,4.80
2022-11-12T21:13:46.351Z,4.68
2022-11-12T21:16:19.844Z,4.61
2022-11-12T21:18:46.343Z,4.56
2022-11-12T21:21:21.173Z,4.58
2022-11-12T21:23:58.332Z,4.25
2022-11-12T21:26:36.233Z,4.36
2022-11-12T21:29:04.820Z,4.53
2022-11-12T21:31:39.263Z,4.52
2022-11-12T21:34:06.970Z,4.35
2022-11-12T21:36:35.381Z,4.04
2022-11-12T21:39:04.624Z,4.18
2022-11-12T21:41:34.114Z,4.31
2022-11-12T21:44:00.423Z,4.32
2022-11-12T21:46:29.227Z,4.39
2022-11-12T21:48:56.160Z,4.36
2022-11-12T21:51:26.807Z,4.03
2022-11-12T21:53:57.158Z,3.71
2022-11-12T21:56:27.968Z,4.06
2022-11-12T21:58:59.292Z,3.91
2022-11-12T22:01:27.179Z,3.99
2022-11-12T22:03:54.305Z,3.75
2022-11-12T22:06:29.609Z,3.87
2022-11-12T22:08:59.181Z,3.65
2022-11-12T22:11:25.999Z,3.40
2022-11-12T22:13:52.392Z,3.63
2022-11-12T22:16:21.180Z,3.70
2022-11-12T22:18:48.592Z,3.38
2022-11-12T22:21:16.396Z,3.48
2022-11-12T22:23:42.795Z,3.62
2022-11-12T22:26:13.816Z,3.41
2022-11-12T22:28:42.262Z,3.52
2022-11-12T22:31:15.614Z,3.61
2022-11-12T22:33:42.066Z,3.28
2022-11-12T22:36:09.551Z,3.07
2022-11-12T22:38:37.095Z,3.42
2022-11-12T22:41:05.692Z,3.33
2022-11-12T22:43:32.693Z,3.10
2022-11-12T22:46:10.738Z,3.13
2022-11-12T22:48:42.066Z,3.34
2022-11-12T22:51:15.878Z,3.24
2022-11-12T22:53:46.800Z,3.22
2022-11-12T22:56:15.094Z,3.11
2022-11-12T22:58:42.643Z,2.81
2022-11-12T23:01:20.028Z,3.18
2022-11-12T23:03:46.688Z,3.10
2022-11-12T23:06:13.114Z,3.01
2022-11-12T23:08:39.768Z,3.01
2022-11-12T23:11:07.472Z,2.83
2022-11-12T23:13:34.515Z,2.75
2022-11-12T23:16:01.096Z,2.86
2022-11-12T23:18:27.626Z,3.04
2022-11-12T23:20:54.214Z,2.99
2022-11-12T23:23:20.614Z,2.92
2022-11-12T23:25:47.046Z,2.92
2022-11-12T23:28:13.482Z,2.95
2022-11-12T23:30:39.785Z,2.81
2022-11-12T23:33:06.094Z,2.84
2022-11-12T23:35:32.467Z,2.84
2022-11-12T23:37:58.783Z,2.35
2022-11-12T23:40:30.576Z,2.74
2022-11-12T23:42:57.355Z,2.74
2022-11-12T23:45:23.747Z,2.72
2022-11-12T23:47:50.268Z,2.56
2022-11-12T23:50:16.639Z,2.44
2022-11-12T23:52:43.038Z,2.38
2022-11-12T23:55:09.441Z,2.28
2022-11-12T23:57:35.852Z,2.25
